createdAt,value
2019-04-03T00:00:13.378Z,0
2019-04-03T00:01:12.423Z,0
2019-04-03T00:03:53.426Z,0
2019-04-03T00:04:52.397Z,0
2019-04-03T00:05:51.228Z,0
2019-04-03T00:06:50.140Z,0
2019-04-03T00:09:40.898Z,0
2019-04-03T00:10:41.102Z,0
2019-04-03T00:11:40.428Z,0
2019-04-03T00:12:40.962Z,0
2019-04-03T00:17:02.091Z,0
2019-04-03T00:18:01.007Z,0
2019-04-03T00:20:41.797Z,0
2019-04-03T00:21:40.674Z,0
2019-04-03T00:22:40.306Z,0
2019-04-03T00:23:39.302Z,0
2019-04-03T00:26:02.463Z,0
2019-04-03T00:27:01.410Z,0
2019-04-03T00:28:00.279Z,0
2019-04-03T00:28:59.147Z,0
2019-04-03T00:29:58.037Z,0
2019-04-03T00:30:58.869Z,0
2019-04-03T00:32:01.172Z,0
2019-04-03T00:33:00.437Z,0
2019-04-03T00:33:59.249Z,0
2019-04-03T00:34:58.119Z,0
2019-04-03T00:35:56.989Z,0
2019-04-03T00:36:55.780Z,0
2019-04-03T00:37:54.625Z,0
2019-04-03T00:38:54.236Z,0
2019-04-03T00:39:52.508Z,0
2019-04-03T00:40:51.109Z,0
2019-04-03T00:41:50.092Z,0
2019-04-03T00:42:48.754Z,0
2019-04-03T00:43:47.574Z,0
2019-04-03T00:44:46.501Z,0
2019-04-03T00:45:45.314Z,0
2019-04-03T00:46:44.157Z,0
2019-04-03T00:47:43.109Z,0
2019-04-03T00:48:41.983Z,0
2019-04-03T00:49:40.766Z,0
2019-04-03T00:50:39.669Z,0
2019-04-03T00:51:38.423Z,0
2019-04-03T00:52:37.227Z,0
2019-04-03T00:53:36.022Z,0
2019-04-03T00:54:34.860Z,0
2019-04-03T00:55:33.887Z,0
2019-04-03T00:56:32.716Z,0
2019-04-03T00:57:32.945Z,0
2019-04-03T01:00:13.348Z,0
2019-04-03T01:01:12.559Z,0
2019-04-03T01:02:11.342Z,0
2019-04-03T01:03:10.303Z,0
2019-04-03T01:04:09.033Z,0
2019-04-03T01:05:08.347Z,0
2019-04-03T01:06:07.205Z,0
2019-04-03T01:07:06.261Z,0
2019-04-03T01:08:05.134Z,0
2019-04-03T01:09:03.947Z,0
2019-04-03T01:10:02.867Z,0
2019-04-03T01:11:01.693Z,0
2019-04-03T01:12:01.148Z,0
2019-04-03T01:12:59.826Z,0
2019-04-03T01:16:26.938Z,0
2019-04-03T01:19:08.437Z,0
2019-04-03T01:20:07.140Z,0
2019-04-03T01:21:06.800Z,0
2019-04-03T01:22:05.621Z,0
2019-04-03T01:23:03.974Z,0
2019-04-03T01:24:02.887Z,0
2019-04-03T01:25:04.936Z,0
2019-04-03T01:27:45.403Z,0
2019-04-03T01:28:44.547Z,0
2019-04-03T01:29:43.396Z,0
2019-04-03T01:30:42.530Z,0
2019-04-03T01:31:41.742Z,0
2019-04-03T01:32:40.693Z,0
2019-04-03T01:33:39.532Z,0
2019-04-03T01:34:38.419Z,0
2019-04-03T01:35:37.199Z,0
2019-04-03T01:38:19.220Z,0
2019-04-03T01:39:16.453Z,0
2019-04-03T01:42:13.498Z,0
2019-04-03T01:45:12.158Z,0
2019-04-03T01:46:11.072Z,0
2019-04-03T01:47:10.011Z,0
2019-04-03T01:48:09.030Z,0
2019-04-03T01:52:21.570Z,0
2019-04-03T01:53:20.431Z,0
2019-04-03T02:05:50.044Z,0
2019-04-03T02:06:49.139Z,0
2019-04-03T02:07:48.096Z,0
2019-04-03T02:08:46.894Z,0
2019-04-03T02:11:27.480Z,0
2019-04-03T02:12:26.539Z,0
2019-04-03T02:15:40.646Z,0
2019-04-03T02:16:39.488Z,0
2019-04-03T02:17:38.631Z,0
2019-04-03T02:18:37.372Z,0
2019-04-03T02:19:36.115Z,0
2019-04-03T02:20:35.049Z,0
2019-04-03T02:21:34.077Z,0
2019-04-03T02:22:33.011Z,0
2019-04-03T02:23:31.881Z,0
2019-04-03T02:24:31.924Z,0
2019-04-03T02:25:32.100Z,0
2019-04-03T02:26:28.982Z,0
2019-04-03T02:27:27.858Z,0
2019-04-03T02:28:26.852Z,0
2019-04-03T02:29:25.857Z,0
2019-04-03T02:30:24.775Z,0
2019-04-03T02:31:23.817Z,0
2019-04-03T02:32:23.952Z,0
2019-04-03T02:33:21.488Z,0
2019-04-03T02:34:20.391Z,0
2019-04-03T02:35:19.258Z,0
2019-04-03T02:36:18.323Z,0
2019-04-03T02:37:17.698Z,0
2019-04-03T02:38:16.022Z,0
2019-04-03T02:39:14.908Z,0
2019-04-03T02:40:13.795Z,0
2019-04-03T02:41:12.660Z,0
2019-04-03T02:42:11.625Z,0
2019-04-03T02:43:13.418Z,0
2019-04-03T02:44:09.861Z,0
2019-04-03T02:45:08.747Z,0
2019-04-03T02:46:07.631Z,0
2019-04-03T02:47:06.694Z,0
2019-04-03T02:48:06.488Z,0
2019-04-03T02:49:04.734Z,0
2019-04-03T02:50:03.699Z,0
2019-04-03T02:51:02.349Z,0
2019-04-03T02:52:01.267Z,0
2019-04-03T02:53:00.399Z,0
2019-04-03T02:54:01.483Z,0
2019-04-03T02:54:57.799Z,0
2019-04-03T02:55:56.731Z,0
2019-04-03T02:56:55.508Z,0
2019-04-03T02:57:54.384Z,0
2019-04-03T02:58:54.773Z,0
2019-04-03T02:59:53.155Z,0
2019-04-03T03:00:51.642Z,0
2019-04-03T03:01:51.055Z,0
2019-04-03T03:02:49.937Z,0
2019-04-03T03:03:49.948Z,0
2019-04-03T03:04:48.612Z,0
2019-04-03T03:05:47.538Z,0
2019-04-03T03:06:46.507Z,0
2019-04-03T03:07:45.345Z,0
2019-04-03T03:08:44.177Z,0
2019-04-03T03:09:45.514Z,0
2019-04-03T03:10:41.889Z,0
2019-04-03T03:11:40.811Z,0
2019-04-03T03:12:39.634Z,0
2019-04-03T03:13:38.487Z,0
2019-04-03T03:14:39.217Z,0
2019-04-03T03:15:36.280Z,0
2019-04-03T03:16:35.136Z,0
2019-04-03T03:17:34.087Z,0
2019-04-03T03:18:32.935Z,0
2019-04-03T03:19:32.927Z,0
2019-04-03T03:20:30.791Z,0
2019-04-03T03:21:29.540Z,0
2019-04-03T03:22:28.699Z,0
2019-04-03T03:23:27.349Z,0
2019-04-03T03:24:28.277Z,0
2019-04-03T03:25:25.059Z,0
2019-04-03T03:26:24.212Z,0
2019-04-03T03:27:22.752Z,0
2019-04-03T03:28:21.565Z,0
2019-04-03T03:29:25.021Z,0
2019-04-03T03:30:35.444Z,0
2019-04-03T03:31:19.170Z,0
2019-04-03T03:32:21.743Z,0
2019-04-03T03:33:31.881Z,0
2019-04-03T03:34:15.444Z,0
2019-04-03T03:35:17.115Z,0
2019-04-03T03:36:19.198Z,0
2019-04-03T03:37:12.928Z,0
2019-04-03T03:38:11.561Z,0
2019-04-03T03:39:11.518Z,0
2019-04-03T03:40:09.162Z,0
2019-04-03T03:41:08.114Z,0
2019-04-03T03:42:07.254Z,0
2019-04-03T03:43:06.429Z,0
2019-04-03T03:44:05.226Z,0
2019-04-03T03:45:04.239Z,0
2019-04-03T03:46:02.828Z,0
2019-04-03T03:47:02.799Z,0
2019-04-03T03:48:00.500Z,0
2019-04-03T03:48:59.251Z,0
2019-04-03T03:49:58.080Z,0
2019-04-03T03:50:58.469Z,0
2019-04-03T03:51:56.020Z,0
2019-04-03T03:52:54.889Z,0
2019-04-03T03:53:54.066Z,0
2019-04-03T03:54:52.727Z,0
2019-04-03T03:55:51.526Z,0
2019-04-03T03:56:50.558Z,0
2019-04-03T03:57:49.653Z,0
2019-04-03T03:58:48.802Z,0
2019-04-03T03:59:50.319Z,0
2019-04-03T04:00:51.442Z,0
2019-04-03T04:02:48.921Z,0
2019-04-03T04:03:47.934Z,0
2019-04-03T04:04:48.314Z,0
2019-04-03T04:05:45.996Z,0
2019-04-03T04:06:47.319Z,0
2019-04-03T04:07:45.944Z,0
2019-04-03T04:08:45.659Z,0
2019-04-03T04:09:44.114Z,0
2019-04-03T04:10:42.969Z,0
2019-04-03T04:11:42.523Z,0
2019-04-03T04:12:42.008Z,0
2019-04-03T04:13:40.161Z,0
2019-04-03T04:14:39.261Z,0
2019-04-03T04:15:38.338Z,0
2019-04-03T04:16:37.803Z,0
2019-04-03T04:17:35.949Z,0
2019-04-03T04:18:35.965Z,0
2019-04-03T04:19:34.492Z,0
2019-04-03T04:20:36.453Z,0
2019-04-03T04:21:32.583Z,0
2019-04-03T04:22:31.461Z,0
2019-04-03T04:23:30.454Z,0
2019-04-03T04:24:29.147Z,0
2019-04-03T04:25:30.128Z,0
2019-04-03T04:26:27.381Z,0
2019-04-03T04:27:26.146Z,0
2019-04-03T04:28:25.729Z,0
2019-04-03T04:29:24.560Z,0
2019-04-03T04:30:32.671Z,0
2019-04-03T04:31:32.175Z,0
2019-04-03T04:32:31.190Z,0
2019-04-03T04:33:29.914Z,0
2019-04-03T04:34:28.747Z,0
2019-04-03T04:36:55.112Z,0
2019-04-03T04:37:55.216Z,0
2019-04-03T04:38:51.402Z,0
2019-04-03T04:39:50.297Z,0
2019-04-03T04:40:49.318Z,0
2019-04-03T04:41:47.990Z,0
2019-04-03T04:42:46.866Z,0
2019-04-03T04:43:45.729Z,0
2019-04-03T04:44:44.602Z,0
2019-04-03T04:45:43.359Z,0
2019-04-03T04:46:44.488Z,0
2019-04-03T04:49:23.251Z,0
2019-04-03T04:50:24.140Z,0
2019-04-03T05:05:03.963Z,0
2019-04-03T05:06:03.305Z,0
2019-04-03T05:07:02.206Z,0
2019-04-03T05:08:02.610Z,0
2019-04-03T05:09:03.155Z,0
2019-04-03T05:09:59.619Z,0
2019-04-03T05:10:58.456Z,0
2019-04-03T05:11:57.329Z,0
2019-04-03T05:12:56.171Z,0
2019-04-03T05:13:55.038Z,0
2019-04-03T05:14:54.020Z,0
2019-04-03T05:15:53.900Z,0
2019-04-03T05:16:51.889Z,0
2019-04-03T05:17:50.774Z,0
2019-04-03T05:18:49.654Z,5
2019-04-03T05:19:49.334Z,5
2019-04-03T05:20:48.798Z,5
2019-04-03T05:21:46.452Z,5
2019-04-03T05:22:45.253Z,5
2019-04-03T05:23:44.329Z,5
2019-04-03T05:24:43.260Z,5
2019-04-03T05:25:42.200Z,5
2019-04-03T05:26:41.083Z,5
2019-04-03T05:27:40.828Z,5
2019-04-03T05:28:39.678Z,5
2019-04-03T05:29:38.544Z,5
2019-04-03T05:30:37.974Z,10
2019-04-03T05:31:38.449Z,10
2019-04-03T05:32:35.446Z,10
2019-04-03T05:33:34.395Z,10
2019-04-03T05:34:33.244Z,10
2019-04-03T05:35:32.242Z,10
2019-04-03T05:36:31.104Z,10
2019-04-03T05:37:30.220Z,10
2019-04-03T05:38:29.068Z,10
2019-04-03T05:39:28.066Z,10
2019-04-03T05:40:27.074Z,10
2019-04-03T05:41:28.319Z,10
2019-04-03T05:42:25.141Z,10
2019-04-03T05:43:24.452Z,10
2019-04-03T05:44:24.084Z,10
2019-04-03T05:45:22.552Z,15
2019-04-03T05:46:21.250Z,15
2019-04-03T05:47:20.227Z,15
2019-04-03T05:48:19.286Z,10
2019-04-03T05:49:19.002Z,10
2019-04-03T05:50:16.885Z,10
2019-04-03T05:51:15.820Z,15
2019-04-03T05:52:14.582Z,15
2019-04-03T05:53:13.426Z,15
2019-04-03T05:54:14.165Z,15
2019-04-03T05:55:11.219Z,15
2019-04-03T05:56:11.946Z,15
2019-04-03T05:57:08.791Z,15
2019-04-03T05:58:07.647Z,15
2019-04-03T05:59:06.512Z,15
2019-04-03T06:00:06.771Z,15
2019-04-03T06:01:06.843Z,15
2019-04-03T06:02:13.730Z,15
2019-04-03T06:03:02.731Z,15
2019-04-03T06:04:01.756Z,15
2019-04-03T06:05:00.667Z,15
2019-04-03T06:05:59.654Z,20
2019-04-03T06:06:58.330Z,20
2019-04-03T06:07:57.329Z,20
2019-04-03T06:08:57.137Z,20
2019-04-03T06:09:58.343Z,20
2019-04-03T06:10:54.524Z,25
2019-04-03T06:11:55.228Z,25
2019-04-03T06:12:54.142Z,25
2019-04-03T06:13:53.099Z,25
2019-04-03T06:14:52.093Z,20
2019-04-03T06:15:52.619Z,20
2019-04-03T06:16:49.841Z,25
2019-04-03T06:17:50.227Z,25
2019-04-03T06:18:48.179Z,25
2019-04-03T06:19:46.738Z,25
2019-04-03T06:20:45.622Z,25
2019-04-03T06:21:46.100Z,30
2019-04-03T06:22:43.453Z,25
2019-04-03T06:23:42.351Z,25
2019-04-03T06:24:41.327Z,25
2019-04-03T06:25:40.124Z,25
2019-04-03T06:26:39.105Z,20
2019-04-03T06:27:40.642Z,20
2019-04-03T06:28:36.830Z,20
2019-04-03T06:29:35.926Z,15
2019-04-03T06:30:34.514Z,15
2019-04-03T06:31:33.392Z,15
2019-04-03T06:32:32.314Z,15
2019-04-03T06:33:32.069Z,15
2019-04-03T06:34:29.985Z,20
2019-04-03T06:35:28.879Z,20
2019-04-03T06:36:27.785Z,20
2019-04-03T06:37:27.441Z,20
2019-04-03T06:38:26.617Z,20
2019-04-03T06:39:30.074Z,20
2019-04-03T06:40:24.332Z,20
2019-04-03T06:41:24.716Z,20
2019-04-03T06:42:23.413Z,20
2019-04-03T06:43:22.359Z,20
2019-04-03T06:44:22.520Z,20
2019-04-03T06:45:20.195Z,20
2019-04-03T06:46:19.235Z,20
2019-04-03T06:47:17.840Z,20
2019-04-03T06:48:17.058Z,20
2019-04-03T06:49:16.037Z,20
2019-04-03T06:50:17.045Z,20
2019-04-03T06:51:16.070Z,20
2019-04-03T06:52:13.368Z,20
2019-04-03T06:55:44.713Z,20
2019-04-03T06:56:43.501Z,20
2019-04-03T06:57:42.683Z,25
2019-04-03T06:58:43.371Z,25
2019-04-03T06:59:40.339Z,20
2019-04-03T07:00:39.132Z,20
2019-04-03T07:01:37.931Z,20
2019-04-03T07:02:36.769Z,15
2019-04-03T07:03:35.724Z,15
2019-04-03T07:04:34.557Z,15
2019-04-03T07:05:33.360Z,15
2019-04-03T07:06:32.244Z,20
2019-04-03T07:07:33.697Z,20
2019-04-03T07:08:34.794Z,20
2019-04-03T07:09:34.699Z,15
2019-04-03T07:10:49.696Z,15
2019-04-03T07:11:43.186Z,15
2019-04-03T07:14:21.203Z,15
2019-04-03T07:15:30.150Z,15
2019-04-03T07:17:00.638Z,15
2019-04-03T07:18:38.102Z,15
2019-04-03T07:20:14.091Z,15
2019-04-03T07:21:29.201Z,20
2019-04-03T07:22:28.287Z,20
2019-04-03T07:23:41.148Z,25
2019-04-03T07:25:20.657Z,20
2019-04-03T07:26:19.877Z,25
2019-04-03T07:28:10.852Z,25
2019-04-03T07:30:01.494Z,25
2019-04-03T07:31:23.143Z,20
2019-04-03T07:32:29.399Z,20
2019-04-03T07:34:11.927Z,25
2019-04-03T07:35:30.949Z,25
2019-04-03T07:36:49.030Z,30
2019-04-03T07:38:42.042Z,30
2019-04-03T07:39:41.750Z,30
2019-04-03T07:48:55.071Z,20
2019-04-03T07:50:29.078Z,20
2019-04-03T07:57:29.418Z,30
2019-04-03T07:59:02.632Z,35
2019-04-03T08:00:10.188Z,45
2019-04-03T08:01:14.117Z,50
2019-04-03T08:04:16.789Z,45
2019-04-03T08:05:15.384Z,45
2019-04-03T08:07:56.247Z,50
2019-04-03T08:09:15.670Z,50
2019-04-03T08:12:26.039Z,60
2019-04-03T08:13:26.725Z,60
2019-04-03T08:14:25.728Z,65
2019-04-03T08:15:25.269Z,65
2019-04-03T08:16:24.194Z,60
2019-04-03T08:18:02.227Z,70
2019-04-03T08:19:44.979Z,100
2019-04-03T08:26:33.210Z,125
2019-04-03T08:28:33.740Z,140
2019-04-03T08:31:14.293Z,160
2019-04-03T08:42:05.195Z,195
2019-04-03T08:45:45.835Z,150
2019-04-03T08:51:24.631Z,105
2019-04-03T08:53:55.140Z,105
2019-04-03T08:56:36.253Z,95
2019-04-03T08:57:35.280Z,100
2019-04-03T09:12:05.595Z,145
2019-04-03T09:13:15.708Z,115
2019-04-03T09:18:51.423Z,80
2019-04-03T09:20:51.351Z,105
2019-04-03T09:26:13.217Z,130
2019-04-03T09:31:38.276Z,155
2019-04-03T09:38:25.454Z,180
2019-04-03T09:41:06.811Z,155
2019-04-03T09:42:51.475Z,145
2019-04-03T09:46:20.320Z,85
2019-04-03T09:53:26.311Z,65
2019-04-03T09:54:42.543Z,70
2019-04-03T09:57:46.117Z,70
2019-04-03T09:59:08.058Z,60
2019-04-03T10:00:23.950Z,65
2019-04-03T10:02:46.936Z,75
2019-04-03T10:03:52.049Z,100
2019-04-03T10:05:40.191Z,125
2019-04-03T10:06:57.526Z,145
2019-04-03T10:13:07.985Z,105
2019-04-03T10:16:02.592Z,105
2019-04-03T10:18:09.517Z,120
2019-04-03T10:23:29.485Z,185
2019-04-03T10:27:42.248Z,185
2019-04-03T10:37:15.230Z,200
2019-04-03T10:40:53.827Z,175
2019-04-03T10:43:18.023Z,170
2019-04-03T10:46:11.388Z,165
2019-04-03T10:49:52.792Z,155
2019-04-03T10:51:31.092Z,155
2019-04-03T10:52:51.285Z,165
2019-04-03T10:54:17.643Z,155
2019-04-03T10:55:50.357Z,155
2019-04-03T10:57:41.142Z,160
2019-04-03T10:58:50.916Z,160
2019-04-03T11:00:24.260Z,155
2019-04-03T11:02:29.273Z,145
2019-04-03T11:04:09.898Z,125
2019-04-03T11:05:13.956Z,120
2019-04-03T11:06:36.589Z,120
2019-04-03T11:07:45.005Z,125
2019-04-03T11:09:08.722Z,135
2019-04-03T11:10:52.280Z,120
2019-04-03T11:12:11.358Z,115
2019-04-03T11:13:36.973Z,115
2019-04-03T11:14:42.694Z,115
2019-04-03T11:16:03.095Z,115
2019-04-03T11:17:01.882Z,105
2019-04-03T11:18:16.333Z,90
2019-04-03T11:19:15.360Z,75
2019-04-03T11:20:44.571Z,75
2019-04-03T11:21:44.812Z,75
2019-04-03T11:23:05.241Z,85
2019-04-03T11:24:14.701Z,95
2019-04-03T11:25:45.793Z,105
2019-04-03T11:26:42.119Z,105
2019-04-03T11:28:09.516Z,105
2019-04-03T11:29:10.175Z,100
2019-04-03T11:31:51.249Z,85
2019-04-03T11:33:53.924Z,85
2019-04-03T11:37:42.564Z,100
2019-04-03T11:38:51.686Z,110
2019-04-03T11:40:01.219Z,120
2019-04-03T11:40:50.282Z,130
2019-04-03T11:41:56.371Z,130
2019-04-03T11:43:06.701Z,130
2019-04-03T11:44:37.439Z,125
2019-04-03T11:46:00.732Z,115
2019-04-03T11:47:06.414Z,115
2019-04-03T11:50:33.200Z,115
2019-04-03T11:51:49.060Z,105
2019-04-03T11:52:48.066Z,95
2019-04-03T11:53:47.152Z,85
2019-04-03T11:54:46.124Z,85
2019-04-03T11:55:45.257Z,85
2019-04-03T11:56:45.150Z,85
2019-04-03T11:57:44.207Z,90
2019-04-03T11:58:43.229Z,90
2019-04-03T11:59:57.855Z,90
2019-04-03T12:01:27.274Z,85
2019-04-03T12:02:26.438Z,85
2019-04-03T12:03:25.367Z,85
2019-04-03T12:04:24.291Z,80
2019-04-03T12:05:23.200Z,80
2019-04-03T12:06:22.025Z,90
2019-04-03T12:07:55.444Z,110
2019-04-03T12:08:53.598Z,120
2019-04-03T12:12:53.072Z,145
2019-04-03T12:13:56.179Z,145
2019-04-03T12:15:07.300Z,145
2019-04-03T12:16:18.570Z,140
2019-04-03T12:17:43.526Z,135
2019-04-03T12:18:59.566Z,130
2019-04-03T12:21:29.031Z,155
2019-04-03T12:24:11.970Z,175
2019-04-03T12:27:47.324Z,170
2019-04-03T12:29:22.265Z,170
2019-04-03T12:31:49.569Z,175
2019-04-03T12:32:54.709Z,170
2019-04-03T12:34:23.770Z,165
2019-04-03T12:35:31.925Z,160
2019-04-03T12:36:31.818Z,165
2019-04-03T12:37:34.772Z,170
2019-04-03T12:38:34.228Z,185
2019-04-03T12:40:33.658Z,215
2019-04-03T12:42:08.256Z,225
2019-04-03T12:43:24.414Z,225
2019-04-03T12:44:24.322Z,215
2019-04-03T12:45:36.810Z,195
2019-04-03T12:47:00.087Z,185
2019-04-03T12:49:34.710Z,170
2019-04-03T12:50:34.626Z,165
2019-04-03T12:52:02.483Z,165
2019-04-03T12:54:21.234Z,155
2019-04-03T12:55:25.547Z,160
2019-04-03T12:56:40.329Z,160
2019-04-03T12:58:05.726Z,170
2019-04-03T12:59:35.281Z,180
2019-04-03T13:00:52.162Z,215
2019-04-03T13:02:33.712Z,215
2019-04-03T13:04:18.713Z,195
2019-04-03T13:07:06.550Z,170
2019-04-03T13:11:50.404Z,170
2019-04-03T13:18:08.107Z,95
2019-04-03T13:19:15.276Z,85
2019-04-03T13:20:20.606Z,75
2019-04-03T13:25:15.226Z,65
2019-04-03T13:26:18.566Z,80
2019-04-03T13:27:30.489Z,90
2019-04-03T13:29:30.046Z,110
2019-04-03T13:32:58.236Z,85
2019-04-03T13:33:55.715Z,80
2019-04-03T13:35:58.328Z,70
2019-04-03T13:41:23.629Z,115
2019-04-03T13:43:34.051Z,130
2019-04-03T13:51:11.884Z,120
2019-04-03T13:53:34.204Z,155
2019-04-03T13:57:56.839Z,110
2019-04-03T13:59:47.657Z,95
2019-04-03T14:01:46.670Z,80
2019-04-03T14:02:59.495Z,75
2019-04-03T14:06:13.309Z,55
2019-04-03T14:07:48.205Z,35
2019-04-03T14:10:07.005Z,25
2019-04-03T14:11:07.715Z,30
2019-04-03T14:12:07.924Z,30
2019-04-03T14:13:12.494Z,30
2019-04-03T14:14:11.015Z,25
2019-04-03T14:15:55.638Z,25
2019-04-03T14:16:55.193Z,20
2019-04-03T14:18:08.962Z,20
2019-04-03T14:20:03.883Z,20
2019-04-03T14:21:51.820Z,20
2019-04-03T14:23:22.611Z,20
2019-04-03T14:25:40.341Z,25
2019-04-03T14:27:29.308Z,30
2019-04-03T14:29:42.934Z,25
2019-04-03T14:35:44.927Z,25
2019-04-03T14:36:34.670Z,20
2019-04-03T14:38:00.854Z,20
2019-04-03T14:40:30.207Z,15
2019-04-03T14:41:37.316Z,15
2019-04-03T14:43:19.004Z,20
2019-04-03T14:44:22.072Z,20
2019-04-03T14:45:45.107Z,20
2019-04-03T14:47:22.713Z,20
2019-04-03T14:48:56.435Z,20
2019-04-03T14:50:05.199Z,20
2019-04-03T14:51:08.371Z,20
2019-04-03T14:52:05.719Z,20
2019-04-03T14:53:04.874Z,20
2019-04-03T14:55:15.149Z,20
2019-04-03T14:56:55.687Z,15
2019-04-03T15:00:21.999Z,20
2019-04-03T15:03:45.666Z,25
2019-04-03T15:04:44.700Z,25
2019-04-03T15:07:52.053Z,20
2019-04-03T15:08:53.427Z,20
2019-04-03T15:12:32.353Z,15
2019-04-03T15:15:40.496Z,15
2019-04-03T15:18:35.440Z,10
2019-04-03T15:23:18.708Z,20
2019-04-03T15:24:29.074Z,20
2019-04-03T15:26:53.411Z,15
2019-04-03T15:29:24.956Z,15
2019-04-03T15:31:34.672Z,20
2019-04-03T15:33:26.155Z,20
2019-04-03T15:35:11.486Z,20
2019-04-03T15:38:49.999Z,15
2019-04-03T15:41:53.180Z,15
2019-04-03T15:48:24.341Z,15
2019-04-03T15:49:29.647Z,15
2019-04-03T15:51:14.495Z,25
2019-04-03T15:53:00.254Z,30
2019-04-03T15:54:21.749Z,30
2019-04-03T15:56:31.519Z,30
2019-04-03T15:57:30.995Z,35
2019-04-03T16:00:11.063Z,40
2019-04-03T16:02:09.010Z,50
2019-04-03T16:05:33.764Z,25
2019-04-03T16:07:41.670Z,10
2019-04-03T16:10:22.669Z,10
2019-04-03T16:14:11.454Z,15
2019-04-03T16:16:35.996Z,15
2019-04-03T16:18:53.765Z,20
2019-04-03T16:20:57.707Z,10
2019-04-03T16:23:08.501Z,10
2019-04-03T16:26:11.032Z,15
2019-04-03T16:30:15.274Z,20
2019-04-03T16:31:13.777Z,15
2019-04-03T16:32:21.261Z,15
2019-04-03T16:35:22.930Z,10
2019-04-03T16:38:11.725Z,10
2019-04-03T16:41:15.650Z,10
2019-04-03T16:44:21.699Z,10
2019-04-03T16:48:20.907Z,10
2019-04-03T16:50:13.408Z,10
2019-04-03T16:53:07.415Z,10
2019-04-03T16:55:11.960Z,5
2019-04-03T16:56:33.862Z,5
2019-04-03T16:57:53.417Z,5
2019-04-03T17:00:05.360Z,5
2019-04-03T17:01:33.443Z,5
2019-04-03T17:03:41.189Z,5
2019-04-03T17:05:28.887Z,5
2019-04-03T17:07:39.093Z,5
2019-04-03T17:09:18.382Z,5
2019-04-03T17:11:04.887Z,5
2019-04-03T17:14:47.177Z,0
2019-04-03T17:16:21.738Z,0
2019-04-03T17:18:42.522Z,0
2019-04-03T17:20:09.634Z,0
2019-04-03T17:21:37.465Z,0
2019-04-03T17:22:38.820Z,0
2019-04-03T17:23:46.773Z,0
2019-04-03T17:25:05.672Z,0
2019-04-03T17:26:48.710Z,0
2019-04-03T17:29:05.366Z,0
2019-04-03T17:30:30.529Z,0
2019-04-03T17:32:24.370Z,0
2019-04-03T17:33:43.666Z,0
2019-04-03T17:35:00.290Z,0
2019-04-03T17:36:03.484Z,0
2019-04-03T17:37:13.746Z,0
2019-04-03T17:38:36.807Z,0
2019-04-03T17:39:36.241Z,0
2019-04-03T17:40:36.480Z,0
2019-04-03T17:41:48.884Z,0
2019-04-03T17:47:54.613Z,0
2019-04-03T17:48:58.132Z,0
2019-04-03T17:51:02.175Z,0
2019-04-03T17:54:09.775Z,0
2019-04-03T17:55:46.963Z,0
2019-04-03T18:00:53.058Z,0
2019-04-03T18:04:45.066Z,0
2019-04-03T18:07:58.760Z,0
2019-04-03T18:10:54.015Z,0
2019-04-03T18:12:02.465Z,0
2019-04-03T18:18:08.702Z,0
2019-04-03T18:23:01.083Z,0
2019-04-03T18:31:09.127Z,0
2019-04-03T18:40:24.888Z,0
2019-04-03T18:41:54.869Z,0
2019-04-03T18:43:56.970Z,0
2019-04-03T18:45:24.018Z,0
2019-04-03T18:48:16.238Z,0
2019-04-03T18:50:29.048Z,0
2019-04-03T18:52:27.273Z,0
2019-04-03T18:54:21.379Z,0
2019-04-03T18:58:18.183Z,0
2019-04-03T19:01:05.005Z,0
2019-04-03T19:05:27.876Z,0
2019-04-03T19:06:34.338Z,0
2019-04-03T19:13:29.497Z,0
2019-04-03T19:20:09.623Z,0
2019-04-03T19:20:55.530Z,0
2019-04-03T19:21:55.275Z,0
2019-04-03T19:23:02.223Z,0
2019-04-03T19:23:54.219Z,0
2019-04-03T19:28:15.314Z,0
2019-04-03T19:29:15.012Z,0
2019-04-03T19:30:13.664Z,0
2019-04-03T19:31:12.602Z,0
2019-04-03T19:54:42.506Z,0
2019-04-03T19:55:41.158Z,0
2019-04-03T19:56:40.116Z,0
2019-04-03T19:57:38.895Z,0
2019-04-03T19:58:37.577Z,0
2019-04-03T19:59:36.211Z,0
2019-04-03T20:00:35.434Z,0
2019-04-03T20:01:33.441Z,0
2019-04-03T20:02:32.129Z,0
2019-04-03T20:03:30.886Z,0
2019-04-03T20:04:29.761Z,0
2019-04-03T20:05:28.404Z,0
2019-04-03T20:06:27.086Z,0
2019-04-03T20:07:26.668Z,0
2019-04-03T20:08:24.778Z,0
2019-04-03T20:09:23.349Z,0
2019-04-03T20:10:22.108Z,0
2019-04-03T20:11:20.850Z,0
2019-04-03T20:12:19.541Z,0
2019-04-03T20:13:18.256Z,0
2019-04-03T20:15:58.853Z,0
2019-04-03T20:16:58.523Z,0
2019-04-03T20:17:56.242Z,0
2019-04-03T20:18:56.163Z,0
2019-04-03T20:19:53.629Z,0
2019-04-03T20:20:52.494Z,0
2019-04-03T20:21:51.176Z,0
2019-04-03T20:22:49.812Z,0
2019-04-03T20:23:48.679Z,0
2019-04-03T20:24:59.161Z,0
2019-04-03T20:25:46.527Z,0
2019-04-03T20:26:46.443Z,0
2019-04-03T20:27:46.796Z,0
2019-04-03T20:28:42.066Z,0
2019-04-03T20:29:40.831Z,0
2019-04-03T20:32:04.998Z,0
2019-04-03T20:33:02.395Z,0
2019-04-03T20:34:01.071Z,0
2019-04-03T20:34:59.722Z,0
2019-04-03T20:35:58.372Z,0
2019-04-03T20:36:57.189Z,0
2019-04-03T20:37:56.999Z,0
2019-04-03T20:38:55.928Z,0
2019-04-03T20:39:53.538Z,0
2019-04-03T20:40:52.113Z,0
2019-04-03T20:41:50.950Z,0
2019-04-03T20:42:49.504Z,0
2019-04-03T20:43:48.082Z,0
2019-04-03T20:44:48.541Z,0
2019-04-03T20:45:45.424Z,0
2019-04-03T20:46:44.039Z,0
2019-04-03T20:47:42.760Z,0
2019-04-03T20:48:41.372Z,0
2019-04-03T20:49:39.994Z,0
2019-04-03T20:50:38.734Z,0
2019-04-03T20:51:37.937Z,0
2019-04-03T20:52:35.781Z,0
2019-04-03T20:53:34.455Z,0
2019-04-03T20:54:33.172Z,0
2019-04-03T20:55:32.049Z,0
2019-04-03T20:56:30.863Z,0
2019-04-03T20:57:31.003Z,0
2019-04-03T20:58:28.389Z,0
2019-04-03T20:59:29.996Z,0
2019-04-03T21:00:25.930Z,0
2019-04-03T21:01:25.058Z,0
2019-04-03T21:02:24.040Z,0
2019-04-03T21:03:23.096Z,0
2019-04-03T21:04:22.098Z,0
2019-04-03T21:05:21.013Z,0
2019-04-03T21:06:20.451Z,0
2019-04-03T21:07:19.025Z,0
2019-04-03T21:08:18.079Z,0
2019-04-03T21:09:16.954Z,0
2019-04-03T21:10:15.799Z,0
2019-04-03T21:11:14.836Z,0
2019-04-03T21:12:13.531Z,0
2019-04-03T21:13:15.076Z,0
2019-04-03T21:14:11.256Z,0
2019-04-03T21:15:09.571Z,0
2019-04-03T21:16:07.933Z,0
2019-04-03T21:17:06.647Z,0
2019-04-03T21:18:05.270Z,0
2019-04-03T21:19:03.867Z,0
2019-04-03T21:20:02.640Z,0
2019-04-03T21:21:01.694Z,0
2019-04-03T21:22:00.306Z,0
2019-04-03T21:23:02.788Z,0
2019-04-03T21:23:58.394Z,0
2019-04-03T21:24:57.139Z,0
2019-04-03T21:25:55.718Z,0
2019-04-03T21:26:54.466Z,0
2019-04-03T21:27:53.060Z,0
2019-04-03T21:28:51.732Z,0
2019-04-03T21:29:50.588Z,0
2019-04-03T21:30:49.222Z,0
2019-04-03T21:31:47.886Z,0
2019-04-03T21:32:46.494Z,0
2019-04-03T21:33:45.336Z,0
2019-04-03T21:34:43.767Z,0
2019-04-03T21:35:42.509Z,0
2019-04-03T21:36:41.240Z,0
2019-04-03T21:37:40.561Z,0
2019-04-03T21:38:39.882Z,0
2019-04-03T21:39:37.163Z,0
2019-04-03T21:40:35.740Z,0
2019-04-03T21:41:34.557Z,0
2019-04-03T21:42:33.187Z,0
2019-04-03T21:43:31.753Z,0
2019-04-03T21:44:31.853Z,0
2019-04-03T21:45:29.229Z,0
2019-04-03T21:46:27.795Z,0
2019-04-03T21:47:26.349Z,0
2019-04-03T21:48:24.935Z,0
2019-04-03T21:49:23.745Z,0
2019-04-03T21:50:22.536Z,0
2019-04-03T21:51:21.356Z,0
2019-04-03T21:52:20.866Z,0
2019-04-03T21:53:18.402Z,0
2019-04-03T21:54:16.970Z,0
2019-04-03T21:55:15.794Z,0
2019-04-03T21:56:14.439Z,0
2019-04-03T21:57:13.115Z,0
2019-04-03T21:58:11.686Z,0
2019-04-03T21:59:10.837Z,0
2019-04-03T22:00:09.069Z,0
2019-04-03T22:01:07.710Z,0
2019-04-03T22:02:06.361Z,0
2019-04-03T22:03:06.763Z,0
2019-04-03T22:04:03.768Z,0
2019-04-03T22:05:02.490Z,0
2019-04-03T22:06:01.103Z,0
2019-04-03T22:06:59.912Z,0
2019-04-03T22:08:00.242Z,0
2019-04-03T22:09:00.351Z,0
2019-04-03T22:09:57.545Z,0
2019-04-03T22:10:56.266Z,0
2019-04-03T22:11:55.128Z,0
2019-04-03T22:12:53.691Z,0
2019-04-03T22:13:52.285Z,0
2019-04-03T22:14:51.024Z,0
2019-04-03T22:15:49.614Z,0
2019-04-03T22:16:50.430Z,0
2019-04-03T22:17:46.899Z,0
2019-04-03T22:18:45.519Z,0
2019-04-03T22:19:44.078Z,0
2019-04-03T22:20:42.725Z,0
2019-04-03T22:21:41.336Z,0
2019-04-03T22:22:40.090Z,0
2019-04-03T22:23:38.953Z,0
2019-04-03T22:24:37.835Z,0
2019-04-03T22:25:36.146Z,0
2019-04-03T22:26:34.831Z,0
2019-04-03T22:27:33.378Z,0
2019-04-03T22:28:31.958Z,0
2019-04-03T22:29:30.705Z,0
2019-04-03T22:30:29.360Z,0
2019-04-03T22:31:27.920Z,0
2019-04-03T22:32:26.510Z,0
2019-04-03T22:33:25.874Z,0
2019-04-03T22:34:23.799Z,0
2019-04-03T22:35:22.529Z,0
2019-04-03T22:36:21.059Z,0
2019-04-03T22:37:19.621Z,0
2019-04-03T22:38:18.218Z,0
2019-04-03T22:39:16.870Z,0